Time;durP1;ratioP1;P1;durP2;ratioP2;P2;SDS_P1;SDS_P2;PMS_P1;PMS_P2;Temp;Humidity;BMP_temperature;BMP_pressure;BME280_temperature;BME280_humidity;BME280_pressure;Samples;Min_cycle;Max_cycle;Signal;HPM_P1;HPM_P2
2021/10/18 00:02:09;;;;;;;12.32;7.55;;;9.30;98.30;;;7.32;100.00;101200.50;5051284;28;20505;-83
2021/10/18 00:04:37;;;;;;;12.68;8.15;;;9.40;98.40;;;7.30;100.00;101199.81;5032933;28;20076;-82
2021/10/18 00:07:04;;;;;;;11.50;6.97;;;9.40;98.40;;;7.22;100.00;101198.69;5050808;28;20041;-83
2021/10/18 00:09:33;;;;;;;11.98;7.05;;;9.40;98.30;;;7.17;100.00;101200.97;5051172;28;20118;-83
2021/10/18 00:12:00;;;;;;;11.93;6.90;;;9.30;98.20;;;7.18;100.00;101199.13;5051199;28;20132;-83
2021/10/18 00:14:27;;;;;;;11.68;7.28;;;9.30;98.10;;;7.11;100.00;101198.00;5051203;28;20073;-82
2021/10/18 00:16:55;;;;;;;15.00;6.90;;;9.30;98.00;;;7.10;100.00;101204.38;5051015;28;20047;-82
2021/10/18 00:19:23;;;;;;;11.70;6.40;;;9.30;97.90;;;7.03;100.00;101199.56;5050666;28;20045;-83
2021/10/18 00:21:50;;;;;;;13.48;7.00;;;9.30;98.00;;;6.94;100.00;101191.47;5050973;28;20166;-83
2021/10/18 00:24:17;;;;;;;11.30;7.28;;;9.20;97.90;;;6.94;100.00;101186.06;5050762;28;20080;-83
2021/10/18 00:26:47;;;;;;;15.48;7.63;;;9.20;98.00;;;6.94;100.00;101195.00;5051031;28;20045;-83
2021/10/18 00:29:14;;;;;;;13.73;6.70;;;9.20;97.90;;;6.88;100.00;101189.34;5032571;28;20048;-82
2021/10/18 00:31:41;;;;;;;11.10;6.22;;;9.20;97.90;;;6.86;100.00;101194.88;5050841;28;20075;-82
2021/10/18 00:34:08;;;;;;;11.48;6.22;;;9.20;97.90;;;6.73;100.00;101189.75;5050617;28;20540;-83
2021/10/18 00:36:36;;;;;;;9.60;6.00;;;9.10;97.90;;;6.67;100.00;101193.03;5050797;28;20041;-82
2021/10/18 00:39:04;;;;;;;15.52;7.18;;;9.10;97.80;;;6.69;100.00;101192.91;5050373;28;20079;-82
2021/10/18 00:41:32;;;;;;;13.48;6.53;;;9.10;97.60;;;6.63;100.00;101188.91;5050585;28;20048;-83
2021/10/18 00:44:00;;;;;;;11.18;6.35;;;9.00;97.70;;;6.57;100.00;101189.50;5050407;28;20065;-83
2021/10/18 00:46:28;;;;;;;10.15;6.57;;;9.00;97.70;;;6.56;100.00;101187.78;5032559;28;20067;-82
2021/10/18 00:48:56;;;;;;;9.27;6.32;;;9.00;97.60;;;6.51;100.00;101201.72;5050345;28;20048;-83
2021/10/18 00:51:26;;;;;;;12.18;5.95;;;8.90;97.60;;;6.49;100.00;101192.88;5050385;28;20413;-82
2021/10/18 00:53:56;;;;;;;10.40;6.55;;;8.90;97.60;;;6.53;100.00;101188.94;5029990;28;20076;-82
2021/10/18 00:56:24;;;;;;;9.07;6.47;;;8.90;97.50;;;6.52;100.00;101186.34;5050098;28;20091;-82
2021/10/18 00:58:52;;;;;;;11.10;6.00;;;8.80;97.30;;;6.40;100.00;101189.19;5049862;28;20068;-82
2021/10/18 01:01:21;;;;;;;14.07;6.93;;;8.80;97.50;;;6.37;100.00;101188.63;5050213;28;20043;-82
2021/10/18 01:03:49;;;;;;;10.18;6.57;;;8.70;97.50;;;6.37;100.00;101186.75;5049869;28;20482;-82
2021/10/18 01:06:16;;;;;;;9.70;5.80;;;8.70;97.50;;;6.39;100.00;101186.63;5050168;28;20120;-83
2021/10/18 01:08:43;;;;;;;9.75;5.75;;;8.70;97.60;;;6.35;100.00;101190.59;5049366;28;20045;-82
2021/10/18 01:11:11;;;;;;;13.82;6.80;;;8.70;97.40;;;6.29;100.00;101196.59;5031976;28;20072;-82
2021/10/18 01:13:38;;;;;;;11.90;6.60;;;8.70;97.40;;;6.21;100.00;101190.03;5049750;28;20469;-82
2021/10/18 01:16:07;;;;;;;11.02;6.32;;;8.60;97.40;;;6.19;100.00;101191.16;5049956;28;20040;-83
2021/10/18 01:18:36;;;;;;;11.50;6.50;;;8.60;97.40;;;6.21;100.00;101198.13;5048894;28;20045;-82
2021/10/18 01:21:05;;;;;;;11.20;6.32;;;8.60;97.40;;;6.22;100.00;101198.97;5049887;28;20080;-82
2021/10/18 01:23:32;;;;;;;11.52;6.25;;;8.50;97.40;;;6.23;100.00;101200.69;5049671;28;20051;-83
2021/10/18 01:25:59;;;;;;;10.18;6.25;;;8.50;97.30;;;6.18;100.00;101193.00;5050274;28;20068;-82
2021/10/18 01:28:27;;;;;;;9.27;5.80;;;8.50;97.40;;;6.15;100.00;101196.00;5049510;28;20473;-82
2021/10/18 01:30:54;;;;;;;11.43;6.25;;;8.50;97.40;;;6.14;100.00;101210.47;5049693;28;20129;-82
2021/10/18 01:33:21;;;;;;;10.68;5.85;;;8.50;97.40;;;6.17;100.00;101210.22;5049566;28;20045;-82
2021/10/18 01:35:49;;;;;;;10.05;6.45;;;8.40;97.40;;;6.15;100.00;101205.91;5049604;28;20138;-82
2021/10/18 01:38:18;;;;;;;10.63;6.05;;;8.40;97.40;;;6.08;100.00;101202.94;5031113;28;20053;-83
2021/10/18 01:40:45;;;;;;;9.60;5.90;;;8.40;97.40;;;6.08;100.00;101211.03;5049427;28;20124;-83
2021/10/18 01:43:12;;;;;;;9.68;6.25;;;8.30;97.30;;;6.02;100.00;101211.59;5049354;28;20469;-82
2021/10/18 01:45:40;;;;;;;12.07;5.57;;;8.30;97.50;;;6.03;100.00;101195.22;5049496;28;20428;-82
2021/10/18 01:48:07;;;;;;;9.55;6.03;;;8.30;97.60;;;6.10;100.00;101214.47;5048960;28;20512;-82
2021/10/18 01:50:34;;;;;;;13.90;6.10;;;8.30;97.60;;;6.08;100.00;101205.63;5049251;28;20051;-82
2021/10/18 01:53:01;;;;;;;9.55;5.97;;;8.30;97.80;;;6.08;100.00;101202.94;5048974;28;20140;-82
2021/10/18 01:55:30;;;;;;;13.00;6.07;;;8.30;97.90;;;6.21;100.00;101205.38;5049156;28;20098;-82
2021/10/18 01:57:58;;;;;;;8.88;6.05;;;8.30;98.20;;;6.29;100.00;101204.69;5048827;28;20053;-82
2021/10/18 02:00:25;;;;;;;12.80;6.78;;;8.30;98.50;;;6.37;100.00;101204.84;5049127;28;20116;-82
2021/10/18 02:02:52;;;;;;;11.82;6.60;;;8.40;98.80;;;6.40;100.00;101210.81;5049090;28;20132;-82
2021/10/18 02:05:19;;;;;;;11.85;6.65;;;8.40;98.80;;;6.46;100.00;101204.00;5049063;28;20049;-82
2021/10/18 02:07:47;;;;;;;10.73;6.28;;;8.40;99.00;;;6.52;100.00;101206.13;5048800;28;20594;-82
2021/10/18 02:10:16;;;;;;;11.10;6.80;;;8.50;99.40;;;6.57;100.00;101206.56;5048996;28;20616;-83
2021/10/18 02:12:45;;;;;;;13.25;7.18;;;8.50;99.50;;;6.63;100.00;101205.16;5048844;28;20045;-82
2021/10/18 02:15:13;;;;;;;8.60;5.97;;;8.50;99.50;;;6.69;100.00;101203.72;5030798;28;20607;-83
2021/10/18 02:17:41;;;;;;;10.57;6.40;;;8.60;99.60;;;6.70;100.00;101206.31;5048528;28;20094;-83
2021/10/18 02:20:11;;;;;;;11.57;6.13;;;8.60;99.50;;;6.69;100.00;101206.44;5048648;28;20049;-83
2021/10/18 02:22:40;;;;;;;10.07;5.82;;;8.60;99.50;;;6.68;100.00;101196.59;5048661;28;20110;-82
2021/10/18 02:25:11;;;;;;;12.95;6.93;;;8.70;99.50;;;6.74;100.00;101191.50;5048773;28;20072;-82
2021/10/18 02:27:38;;;;;;;13.55;6.28;;;8.70;99.50;;;6.75;100.00;101192.34;5048362;28;20526;-83
2021/10/18 02:30:10;;;;;;;13.73;6.05;;;8.70;99.40;;;6.74;100.00;101186.06;5048419;28;20040;-82
2021/10/18 02:32:38;;;;;;;11.35;6.10;;;8.70;99.50;;;6.75;100.00;101184.22;5048617;28;20072;-82
2021/10/18 02:35:07;;;;;;;11.02;6.38;;;8.70;99.50;;;6.76;100.00;101184.09;5048653;28;20440;-82
2021/10/18 02:37:35;;;;;;;12.57;6.78;;;8.70;99.40;;;6.80;100.00;101187.34;5048362;28;20537;-82
2021/10/18 02:40:03;;;;;;;10.90;6.22;;;8.70;99.60;;;6.74;100.00;101185.19;5048526;28;20131;-82
2021/10/18 02:42:31;;;;;;;11.13;6.50;;;8.70;99.60;;;6.71;100.00;101188.22;5048551;28;20052;-82
2021/10/18 02:44:59;;;;;;;9.93;5.93;;;8.70;99.50;;;6.67;100.00;101186.78;5048446;28;20091;-82
2021/10/18 02:47:27;;;;;;;10.93;6.57;;;8.70;99.50;;;6.67;100.00;101184.09;5048314;28;20755;-82
2021/10/18 02:49:54;;;;;;;12.52;7.32;;;8.70;99.40;;;6.60;100.00;101178.38;5048663;28;20047;-82
2021/10/18 02:52:22;;;;;;;20.10;8.23;;;8.70;99.20;;;6.53;100.00;101180.81;5045170;28;20575;-83
2021/10/18 02:54:49;;;;;;;13.48;8.10;;;8.70;99.10;;;6.58;100.00;101180.38;5028529;28;20046;-82
2021/10/18 02:57:16;;;;;;;16.45;7.93;;;8.70;98.90;;;6.59;100.00;101191.06;5028440;28;20123;-83
2021/10/18 02:59:44;;;;;;;14.93;8.02;;;8.70;99.00;;;6.61;100.00;101199.88;5028261;28;20136;-82
2021/10/18 03:02:11;;;;;;;12.32;7.20;;;8.70;98.80;;;6.57;100.00;101193.06;5028414;28;20037;-82
2021/10/18 03:04:40;;;;;;;12.32;6.90;;;8.70;98.90;;;6.51;100.00;101196.31;5028281;28;20536;-82
2021/10/18 03:07:07;;;;;;;11.77;7.97;;;8.70;98.90;;;6.49;100.00;101192.03;5028267;28;20073;-83
2021/10/18 03:09:34;;;;;;;16.92;7.55;;;8.70;98.90;;;6.42;100.00;101189.06;5035026;28;20119;-82
2021/10/18 03:12:02;;;;;;;13.70;6.88;;;8.70;98.90;;;6.45;100.00;101191.47;5048027;28;20103;-83
2021/10/18 03:14:29;;;;;;;12.10;6.90;;;8.70;98.70;;;6.49;100.00;101186.63;5048203;28;20045;-82
2021/10/18 03:16:56;;;;;;;15.60;6.75;;;8.60;98.50;;;6.47;100.00;101189.47;5048288;28;20148;-82
2021/10/18 03:19:23;;;;;;;10.77;6.75;;;8.60;98.50;;;6.52;100.00;101195.31;5047936;28;20044;-83
2021/10/18 03:21:52;;;;;;;13.30;6.57;;;8.60;98.40;;;6.53;100.00;101191.63;5030206;28;20069;-82
2021/10/18 03:24:19;;;;;;;11.48;6.45;;;8.60;98.70;;;6.40;100.00;101189.19;5047873;28;20127;-83
2021/10/18 03:26:46;;;;;;;11.55;7.00;;;8.60;98.80;;;6.40;100.00;101189.19;5047968;28;20152;-82
2021/10/18 03:29:14;;;;;;;12.95;6.72;;;8.60;98.60;;;6.38;100.00;101190.34;5047783;28;20114;-82
2021/10/18 03:31:42;;;;;;;13.23;6.82;;;8.50;98.70;;;6.33;100.00;101187.19;5048056;28;20123;-82
2021/10/18 03:34:09;;;;;;;13.80;6.63;;;8.50;98.70;;;6.28;100.00;101184.03;5047930;28;20045;-83
2021/10/18 03:36:36;;;;;;;10.52;6.03;;;8.50;98.60;;;6.29;100.00;101186.63;5047970;28;20144;-82
2021/10/18 03:39:05;;;;;;;10.20;6.63;;;8.50;98.50;;;6.29;100.00;101189.31;5047548;28;20123;-82
2021/10/18 03:41:32;;;;;;;12.35;7.03;;;8.50;98.40;;;6.24;100.00;101183.47;5049695;28;20127;-82
2021/10/18 03:44:01;;;;;;;10.55;6.35;;;8.40;98.20;;;6.18;100.00;101195.69;5051613;28;20131;-82
2021/10/18 03:46:28;;;;;;;9.10;6.22;;;8.40;98.20;;;6.11;100.00;101191.88;5051703;28;20080;-82
2021/10/18 03:48:55;;;;;;;11.10;6.95;;;8.40;98.20;;;6.01;100.00;101191.81;5051442;28;20091;-82
2021/10/18 03:51:24;;;;;;;10.82;6.35;;;8.40;98.30;;;5.95;100.00;101194.19;5051742;28;20816;-83
2021/10/18 03:53:51;;;;;;;11.40;6.50;;;8.40;98.30;;;5.97;100.00;101192.25;5051390;28;20541;-82
2021/10/18 03:56:20;;;;;;;11.73;6.32;;;8.30;98.10;;;5.96;100.00;101191.38;5051614;28;20080;-82
2021/10/18 03:58:47;;;;;;;13.23;6.57;;;8.30;98.10;;;5.96;100.00;101204.03;5051185;28;20417;-83
2021/10/18 04:01:14;;;;;;;10.65;6.20;;;8.30;98.20;;;5.93;100.00;101201.59;5051507;28;20123;-82
2021/10/18 04:03:41;;;;;;;11.00;6.07;;;8.20;98.10;;;5.91;100.00;101207.13;5051181;28;20044;-82
2021/10/18 04:06:09;;;;;;;10.95;6.38;;;8.20;98.20;;;5.95;100.00;101207.69;5051249;28;20053;-82
2021/10/18 04:08:37;;;;;;;12.02;6.43;;;8.20;98.10;;;5.93;100.00;101204.28;5051026;28;20766;-82
2021/10/18 04:11:04;;;;;;;13.95;6.75;;;8.20;98.20;;;5.90;100.00;101208.09;5051283;28;20511;-82
2021/10/18 04:13:34;;;;;;;10.35;6.22;;;8.20;98.20;;;5.91;100.00;101208.97;5051072;28;20125;-82
2021/10/18 04:16:01;;;;;;;13.88;7.03;;;8.10;98.20;;;5.92;100.00;101213.38;5051173;28;20132;-82
2021/10/18 04:18:29;;;;;;;12.98;6.95;;;8.10;98.20;;;5.93;100.00;101212.38;5050716;28;20053;-82
2021/10/18 04:20:56;;;;;;;14.25;7.38;;;8.10;98.20;;;5.88;100.00;101218.19;5050690;28;20123;-83
2021/10/18 04:25:59;;;;;;;14.88;7.85;;;8.10;98.30;;;5.80;100.00;101224.28;5009511;28;20127;-83
2021/10/18 04:28:27;;;;;;;12.00;6.85;;;8.10;98.30;;;5.80;100.00;101218.88;5010612;28;20046;-83
2021/10/18 04:30:56;;;;;;;12.80;7.53;;;8.10;98.40;;;5.79;100.00;101227.97;5011329;28;20038;-82
2021/10/18 04:33:23;;;;;;;12.45;7.38;;;8.10;98.20;;;5.76;100.00;101222.84;5011091;28;20041;-82
2021/10/18 04:35:50;;;;;;;13.50;8.00;;;8.00;98.20;;;5.75;100.00;101233.78;5011244;28;20140;-83
2021/10/18 04:38:17;;;;;;;12.75;6.95;;;8.00;98.10;;;5.77;100.00;101232.66;5011128;28;20073;-83
2021/10/18 04:40:45;;;;;;;13.00;7.40;;;8.00;98.10;;;5.74;100.00;101229.38;5010946;28;20350;-83
2021/10/18 04:43:12;;;;;;;12.32;7.32;;;8.00;98.20;;;5.69;100.00;101232.47;5011079;28;20405;-83
2021/10/18 04:45:39;;;;;;;12.45;7.40;;;8.00;98.20;;;5.70;100.00;101226.09;5010960;28;20604;-83
2021/10/18 04:48:08;;;;;;;12.73;7.20;;;8.00;98.20;;;5.67;100.00;101223.66;5010666;28;20128;-82
2021/10/18 04:50:35;;;;;;;12.70;6.95;;;7.90;98.10;;;5.70;100.00;101226.09;5010777;28;20050;-82
2021/10/18 04:53:03;;;;;;;12.40;7.60;;;7.90;98.20;;;5.68;100.00;101231.63;5010760;28;20528;-82
2021/10/18 04:55:30;;;;;;;14.27;7.75;;;7.90;98.10;;;5.70;100.00;101236.88;5010538;28;20466;-83
2021/10/18 04:57:59;;;;;;;12.60;7.05;;;7.90;98.20;;;5.70;100.00;101234.19;5010414;28;20042;-83
2021/10/18 05:00:29;;;;;;;14.32;8.07;;;7.90;98.30;;;5.73;100.00;101233.94;5004046;28;20034;-83
2021/10/18 05:02:57;;;;;;;11.82;7.30;;;7.80;98.20;;;5.72;100.00;101231.34;4989643;28;20046;-83
2021/10/18 05:05:26;;;;;;;12.50;7.03;;;7.90;98.30;;;5.73;100.00;101233.94;4991013;28;20058;-83
2021/10/18 05:08:04;;;;;;;10.23;6.85;;;7.90;98.40;;;5.70;100.00;101234.19;4989432;28;20050;-82
2021/10/18 05:10:33;;;;;;;10.95;6.72;;;7.80;98.40;;;5.65;100.00;101236.44;4990993;28;20074;-83
2021/10/18 05:13:00;;;;;;;11.18;7.18;;;7.80;98.30;;;5.61;100.00;101238.53;4991013;28;20081;-82
2021/10/18 05:15:28;;;;;;;13.23;7.20;;;7.80;98.40;;;5.60;100.00;101227.91;4990698;28;20521;-82
2021/10/18 05:17:55;;;;;;;14.10;7.07;;;7.90;98.40;;;5.63;100.00;101235.72;4989074;28;20054;-83
2021/10/18 05:20:23;;;;;;;13.80;7.55;;;7.80;98.30;;;5.69;100.00;101237.88;5002799;28;20048;-83
2021/10/18 05:22:51;;;;;;;11.38;6.55;;;7.90;98.50;;;5.71;100.00;101230.47;5025174;28;20461;-83
2021/10/18 05:25:19;;;;;;;14.20;7.28;;;7.80;98.40;;;5.63;100.00;101233.84;5025222;28;20046;-83
2021/10/18 05:27:46;;;;;;;12.10;7.15;;;7.80;98.50;;;5.65;100.00;101236.44;5009855;28;20132;-83
2021/10/18 05:30:16;;;;;;;9.80;6.43;;;7.80;98.50;;;5.61;100.00;101241.25;5009983;28;20056;-83
2021/10/18 05:32:43;;;;;;;11.30;6.88;;;7.80;98.50;;;5.64;100.00;101240.13;5009878;28;20042;-82
2021/10/18 05:35:10;;;;;;;10.73;6.90;;;7.80;98.30;;;5.62;100.00;101242.97;5009930;28;20042;-83
2021/10/18 05:37:42;;;;;;;13.63;6.68;;;7.80;98.50;;;5.54;100.00;101248.19;5009703;28;20065;-82
2021/10/18 05:40:13;;;;;;;13.30;6.63;;;7.80;98.50;;;5.53;100.00;101249.16;5009996;28;20038;-83
2021/10/18 05:42:41;;;;;;;12.30;6.97;;;7.70;98.50;;;5.48;100.00;101251.41;5009886;28;20103;-83
2021/10/18 05:45:10;;;;;;;11.05;6.75;;;7.70;98.40;;;5.42;100.00;101251.94;5008342;28;20050;-82
2021/10/18 05:47:52;;;;;;;11.25;6.75;;;7.70;98.40;;;5.36;100.00;101256.03;5008066;28;20045;-83
2021/10/18 05:50:20;;;;;;;10.20;5.90;;;7.70;98.30;;;5.41;100.00;101261.03;5009898;28;20707;-83
2021/10/18 05:52:47;;;;;;;10.48;6.82;;;7.70;98.20;;;5.43;100.00;101269.88;5009665;28;20494;-83
2021/10/18 05:55:16;;;;;;;11.48;6.80;;;7.70;98.40;;;5.46;100.00;101264.19;5024582;28;20471;-83
2021/10/18 05:57:51;;;;;;;11.35;6.78;;;7.70;98.40;;;5.48;100.00;101263.06;5009429;28;20046;-83
2021/10/18 06:00:20;;;;;;;12.38;6.90;;;7.70;98.60;;;5.47;100.00;101266.75;5009690;28;20073;-82
2021/10/18 06:02:47;;;;;;;13.98;7.15;;;7.70;98.50;;;5.49;100.00;101259.38;5009476;28;20046;-83
2021/10/18 06:05:15;;;;;;;16.05;8.10;;;7.70;98.50;;;5.53;100.00;101259.13;5009049;28;20090;-83
2021/10/18 06:07:43;;;;;;;16.52;8.55;;;7.60;98.40;;;5.52;100.00;101257.38;5009000;28;20048;-83
2021/10/18 06:10:11;;;;;;;18.92;8.63;;;7.60;98.50;;;5.51;100.00;101256.53;5009465;28;20112;-82
2021/10/18 06:12:41;;;;;;;17.85;8.32;;;7.70;98.70;;;5.48;100.00;101246.88;5009361;28;20115;-83
2021/10/18 06:15:11;;;;;;;12.65;7.93;;;7.70;98.70;;;5.48;100.00;101254.09;5009406;28;20062;-82
2021/10/18 06:17:38;;;;;;;15.52;8.05;;;7.60;98.50;;;5.50;100.00;101244.03;5024202;28;20497;-82
2021/10/18 06:20:08;;;;;;;12.52;8.05;;;7.60;98.50;;;5.53;100.00;101242.91;5009316;28;20041;-83
2021/10/18 06:22:35;;;;;;;17.33;9.52;;;7.60;98.50;;;5.58;100.00;101246.06;5009198;28;20045;-83
2021/10/18 06:25:02;;;;;;;18.42;8.38;;;7.60;98.90;;;5.66;100.00;101248.97;5009121;28;20125;-83
2021/10/18 06:27:30;;;;;;;17.48;7.50;;;7.60;99.10;;;5.68;100.00;101253.22;5009035;28;20088;-83
2021/10/18 06:29:58;;;;;;;15.15;9.35;;;7.70;99.30;;;5.65;100.00;101258.03;5009201;28;20416;-83
2021/10/18 06:32:25;;;;;;;18.65;8.85;;;7.70;99.40;;;5.62;100.00;101258.31;5009133;28;20139;-83
2021/10/18 06:34:53;;;;;;;20.00;8.70;;;7.70;99.30;;;5.65;100.00;101258.91;5008991;28;20092;-82
2021/10/18 06:37:20;;;;;;;19.27;9.98;;;7.70;99.30;;;5.70;100.00;101261.19;5007507;28;20054;-83
2021/10/18 06:39:47;;;;;;;25.17;10.05;;;7.70;99.30;;;5.80;100.00;101264.78;5008919;28;20073;-82
2021/10/18 06:42:15;;;;;;;18.38;10.55;;;7.80;99.30;;;5.88;100.00;101270.38;5007481;28;20104;-84
2021/10/18 06:44:42;;;;;;;19.50;9.77;;;7.80;99.20;;;5.95;100.00;101269.84;5008816;28;20046;-83
2021/10/18 06:47:11;;;;;;;19.20;9.65;;;7.80;99.40;;;6.01;100.00;101266.63;5009011;28;20053;-83
2021/10/18 06:49:39;;;;;;;16.35;9.68;;;7.80;99.60;;;6.01;100.00;101264.75;5008441;28;20117;-83
2021/10/18 06:52:06;;;;;;;14.90;9.77;;;8.00;99.70;;;6.10;100.00;101262.25;5008704;28;20050;-83
2021/10/18 06:54:39;;;;;;;14.82;10.25;;;7.90;99.80;;;6.19;100.00;101264.13;4994201;28;20038;-83
2021/10/18 06:57:07;;;;;;;17.73;11.05;;;8.00;99.80;;;6.28;100.00;101270.53;4989024;28;20068;-83
2021/10/18 06:59:34;;;;;;;16.60;11.27;;;8.00;99.90;;;6.38;100.00;101276.84;4988848;28;20227;-83
2021/10/18 07:02:01;;;;;;;17.92;10.98;;;8.10;99.90;;;6.49;100.00;101274.00;4987446;28;20046;-83
2021/10/18 07:04:30;;;;;;;16.20;10.35;;;8.10;99.90;;;6.50;100.00;101280.28;4988982;28;20142;-83
2021/10/18 07:06:58;;;;;;;16.52;10.32;;;8.20;99.90;;;6.55;100.00;101281.56;4988877;28;20585;-83
2021/10/18 07:09:27;;;;;;;16.50;10.77;;;8.20;99.90;;;6.60;100.00;101278.44;4988658;28;20046;-83
2021/10/18 07:11:55;;;;;;;20.00;10.18;;;8.30;99.90;;;6.63;100.00;101279.03;4987703;28;20782;-83
2021/10/18 07:14:23;;;;;;;16.88;9.30;;;8.40;99.90;;;6.73;100.00;101273.63;4993304;28;20468;-83
2021/10/18 07:16:51;;;;;;;16.67;9.90;;;8.40;99.90;;;6.79;100.00;101273.03;5010589;28;20077;-83
2021/10/18 07:19:19;;;;;;;16.08;9.40;;;8.50;99.90;;;6.91;100.00;101273.78;4995242;28;20474;-83
2021/10/18 07:21:47;;;;;;;18.88;9.60;;;8.60;99.90;;;6.98;100.00;101269.50;4996606;28;20125;-84
2021/10/18 07:24:17;;;;;;;19.55;10.15;;;8.60;99.90;;;7.07;100.00;101262.38;5004571;28;20136;-83
2021/10/18 07:26:47;;;;;;;16.73;9.70;;;8.70;99.90;;;7.22;100.00;101255.53;4996867;28;20050;-83
2021/10/18 07:29:14;;;;;;;17.92;9.40;;;8.70;99.90;;;7.36;100.00;101251.50;5001290;28;20538;-83
2021/10/18 07:31:41;;;;;;;17.15;9.30;;;8.80;99.90;;;7.41;100.00;101249.22;5008166;28;20462;-83
2021/10/18 07:34:14;;;;;;;15.73;9.23;;;8.90;99.90;;;7.51;100.00;101254.63;4998996;28;20421;-83
2021/10/18 07:36:48;;;;;;;17.02;8.65;;;8.90;99.90;;;7.61;100.00;101243.75;4999998;28;20073;-83
2021/10/18 07:39:19;;;;;;;15.88;8.38;;;9.00;99.90;;;7.72;100.00;101250.84;5002010;28;20046;-83
2021/10/18 07:41:47;;;;;;;14.38;8.43;;;9.10;99.90;;;7.80;100.00;101253.66;5010378;28;20068;-83
2021/10/18 07:44:15;;;;;;;15.95;8.77;;;9.20;99.90;;;7.91;100.00;101261.63;5010287;28;20627;-83
2021/10/18 07:46:42;;;;;;;16.40;8.88;;;9.30;99.90;;;8.07;100.00;101262.81;5010283;28;20973;-83
2021/10/18 07:49:10;;;;;;;17.80;9.02;;;9.40;99.90;;;8.16;100.00;101254.66;5006439;28;20461;-84
2021/10/18 07:51:37;;;;;;;14.43;8.02;;;9.50;99.90;;;8.25;100.00;101252.91;5009891;28;20066;-83
2021/10/18 07:54:05;;;;;;;19.63;9.07;;;9.60;99.90;;;8.41;100.00;101249.50;5010629;28;20072;-83
2021/10/18 07:56:34;;;;;;;16.13;8.63;;;9.70;99.90;;;8.54;100.00;101250.03;5009401;28;20045;-83
2021/10/18 07:59:02;;;;;;;15.25;8.98;;;9.80;99.90;;;8.65;100.00;101258.97;4990565;28;20200;-83
2021/10/18 08:01:29;;;;;;;14.02;8.32;;;9.90;99.90;;;8.77;100.00;101249.59;4997158;28;20072;-83
2021/10/18 08:03:56;;;;;;;17.20;8.85;;;10.00;99.90;;;8.90;100.00;101257.34;5007409;28;20048;-82
2021/10/18 08:06:23;;;;;;;18.15;9.32;;;10.00;99.90;;;9.00;100.00;101258.09;5011809;28;20133;-83
2021/10/18 08:08:51;;;;;;;15.98;8.48;;;10.20;99.90;;;9.09;100.00;101248.19;5011555;28;20402;-83
2021/10/18 08:11:19;;;;;;;14.50;8.88;;;10.20;99.90;;;9.18;100.00;101252.66;5011645;28;20502;-83
2021/10/18 08:13:48;;;;;;;13.50;7.88;;;10.40;99.90;;;9.26;100.00;101251.88;5011528;28;20104;-83
2021/10/18 08:16:16;;;;;;;14.35;9.00;;;10.40;99.90;;;9.39;100.00;101249.59;5011565;28;20100;-83
2021/10/18 08:18:43;;;;;;;13.95;8.05;;;10.50;99.90;;;9.56;100.00;101247.84;5010757;28;20042;-83
2021/10/18 08:21:12;;;;;;;15.13;8.00;;;10.70;99.90;;;9.73;100.00;101251.53;5009935;28;20054;-83
2021/10/18 08:23:41;;;;;;;13.60;7.53;;;10.80;99.90;;;9.88;100.00;101246.31;5011137;28;20128;-84
2021/10/18 08:26:09;;;;;;;15.63;7.80;;;10.90;99.90;;;10.06;100.00;101249.81;5011334;28;20053;-83
2021/10/18 08:28:36;;;;;;;16.23;7.72;;;11.10;99.90;;;10.20;100.00;101242.06;5009489;28;20049;-83
2021/10/18 08:31:05;;;;;;;12.25;6.80;;;11.20;99.90;;;10.31;100.00;101244.50;5011275;28;20081;-83
2021/10/18 08:33:32;;;;;;;11.80;6.78;;;11.30;99.90;;;10.43;100.00;101251.34;5010970;28;20045;-83
2021/10/18 08:36:04;;;;;;;10.10;6.53;;;11.40;99.90;;;10.52;100.00;101244.06;5009691;28;20050;-83
2021/10/18 08:38:52;;;;;;;11.40;6.15;;;11.50;99.90;;;10.62;99.09;101243.91;5008060;28;20144;-84
2021/10/18 08:41:26;;;;;;;12.68;6.00;;;11.70;99.60;;;10.70;98.42;101243.91;5007160;28;20508;-84
2021/10/18 08:46:41;;;;;;;13.27;5.95;;;11.90;98.60;;;10.85;96.58;101238.66;4996512;28;20046;-83
2021/10/18 08:49:08;;;;;;;13.45;5.88;;;12.00;97.70;;;10.90;96.21;101245.31;5010590;28;20042;-83
2021/10/18 08:51:36;;;;;;;13.65;5.65;;;12.00;97.80;;;10.98;94.98;101243.63;5007601;28;20050;-83
2021/10/18 08:54:09;;;;;;;9.52;5.57;;;12.10;96.90;;;11.05;94.39;101240.03;5010751;28;20149;-83
2021/10/18 08:56:37;;;;;;;11.23;5.70;;;12.20;97.00;;;11.14;94.43;101238.19;5010814;28;20053;-83
2021/10/18 08:59:05;;;;;;;11.63;6.03;;;12.20;96.10;;;11.22;94.12;101240.91;5009878;28;20049;-83
2021/10/18 09:01:47;;;;;;;9.85;5.32;;;12.30;96.30;;;11.29;92.70;101243.78;5010588;28;20151;-83
2021/10/18 09:04:25;;;;;;;8.52;5.28;;;12.40;95.70;;;11.35;92.77;101230.31;5010529;28;20117;-83
2021/10/18 09:06:56;;;;;;;10.88;5.00;;;12.50;95.50;;;11.41;91.67;101236.97;5010394;28;20049;-83
2021/10/18 09:09:25;;;;;;;11.55;5.47;;;12.50;94.50;;;11.45;90.77;101232.03;5010483;28;20133;-83
2021/10/18 09:11:55;;;;;;;13.20;6.10;;;12.60;93.80;;;11.51;89.52;101237.63;5010570;28;20050;-83
2021/10/18 09:14:22;;;;;;;12.10;5.55;;;12.60;93.80;;;11.54;89.55;101231.00;5008135;28;20054;-82
2021/10/18 09:16:52;;;;;;;12.20;6.10;;;12.70;92.70;;;11.60;89.01;101237.63;5008701;28;20050;-83
2021/10/18 09:19:24;;;;;;;9.77;5.40;;;12.70;93.20;;;11.68;89.17;101234.88;4999511;28;20069;-83
2021/10/18 09:21:54;;;;;;;11.82;5.43;;;12.80;93.50;;;11.78;89.06;101229.22;5008524;28;20613;-84
2021/10/18 09:24:42;;;;;;;9.15;5.40;;;12.80;93.10;;;11.82;88.75;101236.00;5009861;28;20044;-83
2021/10/18 09:27:16;;;;;;;13.40;5.45;;;12.90;92.00;;;11.89;87.85;101243.34;5010108;28;20041;-83
2021/10/18 09:29:47;;;;;;;12.65;5.72;;;13.00;91.90;;;11.92;86.11;101245.75;5009950;28;20069;-83
2021/10/18 09:32:27;;;;;;;12.80;5.72;;;13.00;90.90;;;11.95;86.57;101247.25;5008578;28;20473;-83
2021/10/18 09:35:06;;;;;;;13.07;5.20;;;13.10;91.30;;;12.01;85.50;101246.53;5009993;28;20837;-83
2021/10/18 09:37:39;;;;;;;10.60;5.68;;;13.10;90.70;;;12.06;84.58;101255.06;5009788;28;20100;-83
2021/10/18 09:40:07;;;;;;;9.40;5.82;;;13.20;90.20;;;12.13;85.59;101253.34;5003308;28;20041;-83
2021/10/18 09:42:35;;;;;;;10.13;5.68;;;13.20;90.00;;;12.16;84.37;101241.19;5009723;28;20129;-83
2021/10/18 09:45:23;;;;;;;10.68;5.60;;;13.30;89.40;;;12.17;84.57;101250.25;5009902;28;20100;-83
2021/10/18 10:51:35;;;;;;;12.07;6.13;;;14.20;86.00;;;12.84;79.29;101242.34;5019758;28;20101;-83
2021/10/18 10:54:05;;;;;;;10.68;5.72;;;14.20;84.70;;;12.89;80.11;101239.94;5004074;28;20050;-83
2021/10/18 10:56:43;;;;;;;12.02;5.88;;;14.20;85.30;;;12.91;78.56;101226.94;5002934;28;20120;-83
2021/10/18 10:59:20;;;;;;;10.40;6.22;;;14.20;84.20;;;13.01;79.12;101212.19;5003327;28;20073;-83
2021/10/18 11:01:59;;;;;;;13.32;5.90;;;14.30;84.80;;;13.06;79.11;101202.41;5003720;28;20094;-82
2021/10/18 11:04:54;;;;;;;13.27;6.50;;;14.30;84.80;;;13.11;78.78;101215.50;5002657;28;20121;-83
2021/10/18 11:07:54;;;;;;;11.18;6.32;;;14.40;84.60;;;13.11;80.10;101230.00;4991446;28;20608;-83
2021/10/18 11:10:25;;;;;;;12.77;6.47;;;14.40;85.10;;;13.15;78.73;101221.47;4989432;28;20042;-83
2021/10/18 11:12:53;;;;;;;10.95;6.07;;;14.40;84.60;;;13.16;78.45;101213.06;4989330;28;20042;-83
2021/10/18 11:15:22;;;;;;;11.82;5.90;;;14.40;84.50;;;13.18;78.42;101210.16;5000637;28;20137;-83
2021/10/18 11:17:53;;;;;;;10.73;6.70;;;14.50;84.50;;;13.18;78.22;101213.75;5008288;28;20503;-83
2021/10/18 11:20:23;;;;;;;10.67;6.20;;;14.50;84.30;;;13.20;78.46;101210.84;5008291;28;20092;-83
2021/10/18 11:22:53;;;;;;;10.48;5.68;;;14.50;84.10;;;13.21;79.06;101209.78;5008324;28;20050;-83
2021/10/18 11:25:24;;;;;;;12.95;6.03;;;14.50;84.20;;;13.22;80.95;101201.41;5008442;28;20072;-83
2021/10/18 11:27:54;;;;;;;12.45;6.15;;;14.60;85.50;;;13.22;80.27;101198.66;5008240;28;20562;-83